Time;durP1;ratioP1;P1;durP2;ratioP2;P2;SDS_P1;SDS_P2;PMS_P1;PMS_P2;Temp;Humidity;BMP_temperature;BMP_pressure;BME280_temperature;BME280_humidity;BME280_pressure;Samples;Min_cycle;Max_cycle;Signal;HPM_P1;HPM_P2
2023/04/26 00:00:44;;;;;;;7.25;4.95;;;6.20;89.30;;;;;;5051321;28;20151;-77
2023/04/26 00:03:11;;;;;;;11.50;5.10;;;6.20;89.70;;;;;;5052765;28;20021;-77
2023/04/26 00:05:37;;;;;;;11.45;5.13;;;6.10;89.80;;;;;;5052641;28;20017;-77
2023/04/26 00:08:03;;;;;;;11.60;5.10;;;6.10;88.50;;;;;;5051411;28;20505;-77
2023/04/26 00:10:29;;;;;;;8.05;5.15;;;6.10;86.60;;;;;;5051237;28;20029;-77
2023/04/26 00:12:55;;;;;;;9.05;4.78;;;6.10;85.30;;;;;;5053671;28;20036;-77
2023/04/26 00:15:20;;;;;;;13.85;4.63;;;6.10;84.70;;;;;;5071696;28;20497;-77
2023/04/26 00:17:46;;;;;;;10.77;5.03;;;6.00;84.20;;;;;;5071633;28;20124;-77
2023/04/26 00:20:12;;;;;;;9.60;4.80;;;6.00;83.60;;;;;;5071557;28;20025;-77
2023/04/26 00:22:38;;;;;;;9.63;5.07;;;6.00;83.00;;;;;;5056110;28;20052;-77
2023/04/26 00:25:04;;;;;;;8.30;4.45;;;6.00;81.50;;;;;;5056034;28;20029;-77
2023/04/26 00:27:30;;;;;;;8.70;4.35;;;5.90;79.70;;;;;;5055935;28;20091;-77
2023/04/26 00:29:56;;;;;;;12.57;5.05;;;5.90;78.70;;;;;;5055901;28;20021;-77
2023/04/26 00:32:22;;;;;;;12.10;5.85;;;5.90;78.00;;;;;;5055838;28;20049;-77
2023/04/26 00:34:47;;;;;;;12.23;5.55;;;5.80;77.20;;;;;;5056080;28;20033;-77
2023/04/26 00:37:13;;;;;;;12.70;6.72;;;5.80;77.10;;;;;;5071221;28;20063;-78
2023/04/26 00:39:38;;;;;;;12.55;3.90;;;5.80;77.50;;;;;;5071131;28;20024;-78
2023/04/26 00:42:04;;;;;;;11.55;5.10;;;5.70;76.20;;;;;;5054334;28;20470;-78
2023/04/26 00:44:30;;;;;;;10.85;5.00;;;5.70;75.90;;;;;;5054777;28;20075;-78
2023/04/26 00:46:56;;;;;;;9.65;4.45;;;5.70;75.40;;;;;;5055648;28;20013;-78
2023/04/26 00:49:24;;;;;;;8.07;3.88;;;5.60;75.70;;;;;;5054473;28;20118;-78
2023/04/26 00:51:51;;;;;;;8.55;4.85;;;5.50;75.60;;;;;;5055572;28;20390;-78
2023/04/26 00:54:20;;;;;;;8.13;5.03;;;5.50;75.60;;;;;;5055505;28;20032;-78
2023/04/26 00:56:45;;;;;;;16.00;5.28;;;5.50;75.50;;;;;;5055312;28;20013;-77
2023/04/26 00:59:11;;;;;;;14.05;4.38;;;5.50;75.00;;;;;;5055322;28;20032;-77
2023/04/26 01:01:37;;;;;;;8.10;3.50;;;5.50;74.60;;;;;;5053951;28;20032;-78
2023/04/26 01:04:03;;;;;;;6.80;4.03;;;5.40;73.90;;;;;;5055393;28;20025;-77
2023/04/26 01:06:40;;;;;;;12.20;4.25;;;5.40;74.50;;;;;;5054181;28;20047;-77
2023/04/26 01:09:08;;;;;;;14.30;3.92;;;5.40;73.90;;;;;;5055420;28;20448;-78
2023/04/26 01:11:35;;;;;;;12.30;4.75;;;5.30;73.70;;;;;;5055257;28;20033;-77
2023/04/26 01:14:02;;;;;;;10.10;3.90;;;5.30;73.80;;;;;;5070594;28;20075;-77
2023/04/26 01:16:29;;;;;;;10.68;3.78;;;5.20;73.70;;;;;;5053854;28;20474;-78
2023/04/26 01:18:55;;;;;;;7.10;3.30;;;5.20;73.70;;;;;;5053811;28;20021;-77
2023/04/26 01:21:23;;;;;;;8.55;4.22;;;5.10;74.40;;;;;;5053718;28;20398;-77
2023/04/26 01:23:50;;;;;;;8.95;3.53;;;5.10;74.50;;;;;;5054669;28;20558;-78
2023/04/26 01:26:15;;;;;;;7.63;3.63;;;5.00;74.70;;;;;;5054581;28;20028;-77
2023/04/26 01:28:41;;;;;;;12.07;4.13;;;5.00;75.30;;;;;;5070233;28;20020;-78
2023/04/26 01:31:07;;;;;;;5.57;3.50;;;4.90;76.00;;;;;;5091600;28;20393;-77
2023/04/26 01:33:32;;;;;;;10.55;3.78;;;4.80;76.90;;;;;;5095087;28;20044;-77
2023/04/26 01:35:58;;;;;;;11.15;4.88;;;4.80;77.70;;;;;;5090068;28;20029;-78
2023/04/26 01:38:24;;;;;;;7.00;3.88;;;4.70;78.90;;;;;;5073468;28;20020;-78
2023/04/26 01:40:50;;;;;;;7.05;3.40;;;4.70;79.50;;;;;;5074568;28;20032;-78
2023/04/26 01:43:18;;;;;;;12.15;4.40;;;4.60;80.20;;;;;;5073504;28;20525;-77
2023/04/26 01:45:47;;;;;;;6.93;3.78;;;4.60;81.30;;;;;;5073217;28;20397;-77
2023/04/26 01:48:13;;;;;;;8.40;4.03;;;4.50;82.30;;;;;;5074485;28;20045;-78
2023/04/26 01:50:38;;;;;;;9.63;5.30;;;4.50;82.90;;;;;;5074493;28;20490;-77
2023/04/26 01:53:04;;;;;;;14.75;5.15;;;4.40;83.90;;;;;;5074505;28;20046;-77
2023/04/26 01:55:29;;;;;;;8.57;6.03;;;4.40;84.70;;;;;;5073057;28;20044;-77
2023/04/26 01:57:55;;;;;;;8.00;4.10;;;4.40;85.40;;;;;;5072954;28;20028;-77
2023/04/26 02:00:21;;;;;;;9.50;4.15;;;4.40;86.30;;;;;;5074243;28;20021;-77
2023/04/26 02:02:47;;;;;;;14.80;7.10;;;4.30;87.00;;;;;;5074136;28;20089;-77
2023/04/26 02:05:12;;;;;;;12.35;4.57;;;4.30;88.60;;;;;;5072942;28;20385;-77
2023/04/26 02:07:38;;;;;;;8.77;4.68;;;4.20;89.60;;;;;;5074122;28;20077;-77
2023/04/26 02:10:04;;;;;;;10.32;4.43;;;4.20;90.00;;;;;;5074201;28;20385;-77
2023/04/26 02:12:30;;;;;;;12.50;4.80;;;4.20;90.90;;;;;;5073986;28;20543;-78
2023/04/26 02:14:56;;;;;;;9.02;4.20;;;4.10;92.30;;;;;;5073979;28;20051;-77
2023/04/26 02:17:22;;;;;;;7.75;5.05;;;4.10;93.90;;;;;;5072698;28;20056;-77
2023/04/26 02:19:48;;;;;;;12.05;6.03;;;4.10;93.60;;;;;;5073792;28;20020;-77
2023/04/26 02:22:13;;;;;;;15.20;5.90;;;4.00;95.10;;;;;;5072474;28;20066;-77
2023/04/26 02:24:39;;;;;;;12.07;5.57;;;3.90;96.80;;;;;;5073902;28;20497;-77
2023/04/26 02:27:05;;;;;;;8.38;5.20;;;3.80;99.90;;;;;;5073776;28;20060;-78
2023/04/26 02:29:31;;;;;;;11.32;5.30;;;3.80;99.90;;;;;;5073108;28;20129;-77
2023/04/26 02:31:57;;;;;;;17.00;5.72;;;3.70;99.90;;;;;;5073691;28;20020;-77
2023/04/26 02:34:23;;;;;;;12.90;6.07;;;3.70;99.90;;;;;;5073738;28;20405;-77
2023/04/26 02:36:48;;;;;;;12.45;5.47;;;3.70;99.90;;;;;;5073562;28;20024;-77
2023/04/26 02:39:14;;;;;;;8.85;5.60;;;3.60;99.90;;;;;;5073776;28;20028;-77
2023/04/26 02:41:40;;;;;;;13.75;6.20;;;3.60;99.90;;;;;;5072197;28;20078;-77
2023/04/26 02:44:06;;;;;;;12.38;6.13;;;3.50;99.90;;;;;;5073622;28;20035;-77
2023/04/26 02:46:32;;;;;;;16.58;6.70;;;3.40;99.90;;;;;;5073545;28;20016;-77
2023/04/26 02:48:57;;;;;;;14.48;7.03;;;3.30;99.90;;;;;;5072200;28;20024;-77
2023/04/26 02:51:23;;;;;;;13.43;6.78;;;3.30;99.90;;;;;;5073447;28;20033;-77
2023/04/26 02:53:48;;;;;;;11.23;7.13;;;3.30;99.90;;;;;;5073364;28;20070;-77
2023/04/26 02:56:15;;;;;;;13.68;5.68;;;3.20;99.90;;;;;;5073320;28;20074;-77
2023/04/26 02:58:40;;;;;;;11.10;5.93;;;3.20;99.90;;;;;;5073210;28;20095;-77
2023/04/26 03:01:06;;;;;;;8.38;5.30;;;3.10;99.90;;;;;;5071980;28;20139;-78
2023/04/26 03:03:32;;;;;;;14.90;5.25;;;3.10;99.90;;;;;;5072026;28;20074;-77
2023/04/26 03:05:58;;;;;;;13.88;5.28;;;3.00;99.90;;;;;;5072036;28;20065;-77
2023/04/26 03:08:23;;;;;;;14.35;5.20;;;3.00;99.90;;;;;;5072018;28;20490;-77
2023/04/26 03:10:49;;;;;;;14.90;6.43;;;3.00;99.90;;;;;;5071929;28;20111;-77
2023/04/26 03:13:14;;;;;;;11.88;5.15;;;3.00;99.90;;;;;;5073304;28;20028;-77
2023/04/26 03:15:45;;;;;;;11.63;5.82;;;2.90;99.90;;;;;;5073210;28;20017;-77
2023/04/26 03:18:10;;;;;;;12.38;6.40;;;2.90;99.90;;;;;;5073258;28;20458;-77
2023/04/26 03:20:36;;;;;;;9.73;5.25;;;2.80;99.90;;;;;;5071944;28;20073;-77
2023/04/26 03:23:01;;;;;;;13.02;5.22;;;2.80;99.90;;;;;;5071951;28;20017;-77
2023/04/26 03:25:27;;;;;;;8.82;5.32;;;2.70;99.90;;;;;;5073059;28;20028;-77
2023/04/26 03:27:54;;;;;;;12.63;5.85;;;2.70;99.90;;;;;;5073091;28;20024;-77
2023/04/26 03:30:19;;;;;;;9.73;5.50;;;2.70;99.90;;;;;;5071796;28;20017;-77
2023/04/26 03:32:45;;;;;;;9.70;5.78;;;2.70;99.90;;;;;;5071546;28;20053;-76
2023/04/26 03:35:11;;;;;;;8.48;4.68;;;2.60;99.90;;;;;;5071892;28;20032;-77
2023/04/26 03:37:38;;;;;;;6.97;5.45;;;2.60;99.90;;;;;;5072931;28;20527;-77
2023/04/26 03:40:08;;;;;;;9.85;5.68;;;2.60;99.90;;;;;;5072991;28;20099;-77
2023/04/26 03:42:35;;;;;;;11.85;5.22;;;2.60;99.90;;;;;;5072716;28;20043;-77
2023/04/26 03:45:02;;;;;;;9.80;5.10;;;2.50;99.90;;;;;;5072925;28;20096;-76
2023/04/26 03:47:28;;;;;;;11.90;5.80;;;2.50;99.90;;;;;;5073512;28;20052;-77
2023/04/26 03:49:54;;;;;;;21.52;7.00;;;2.50;99.90;;;;;;5076952;28;20028;-77
2023/04/26 03:52:19;;;;;;;12.63;6.85;;;2.40;99.90;;;;;;5076748;28;20069;-76
2023/04/26 03:54:45;;;;;;;9.60;5.93;;;2.40;99.90;;;;;;5075480;28;20382;-77
2023/04/26 03:57:11;;;;;;;10.95;5.32;;;2.40;99.90;;;;;;5076599;28;20021;-78
2023/04/26 03:59:36;;;;;;;9.60;5.18;;;2.40;99.90;;;;;;5076477;28;20017;-77
2023/04/26 04:02:02;;;;;;;12.15;4.97;;;2.40;99.90;;;;;;5075247;28;20036;-77
2023/04/26 04:04:28;;;;;;;7.72;5.15;;;2.40;99.90;;;;;;5075237;28;20028;-78
2023/04/26 04:06:53;;;;;;;8.18;4.63;;;2.50;99.90;;;;;;5076313;28;20024;-78
2023/04/26 04:09:19;;;;;;;8.15;4.53;;;2.50;99.90;;;;;;5075571;28;20496;-78
2023/04/26 04:11:45;;;;;;;10.98;5.25;;;2.60;99.90;;;;;;5074944;28;20070;-77
2023/04/26 04:14:11;;;;;;;8.82;5.93;;;2.70;99.90;;;;;;5076375;28;20104;-77
2023/04/26 04:16:36;;;;;;;7.00;4.85;;;2.80;99.90;;;;;;5076224;28;20513;-78
2023/04/26 04:19:02;;;;;;;13.25;6.45;;;2.90;99.90;;;;;;5076366;28;20033;-77
2023/04/26 04:21:28;;;;;;;12.27;4.88;;;3.00;99.90;;;;;;5074854;28;20078;-77
2023/04/26 04:23:53;;;;;;;9.77;5.70;;;3.10;99.90;;;;;;5076205;28;20074;-77
2023/04/26 04:26:19;;;;;;;11.48;5.20;;;3.20;99.90;;;;;;5074813;28;20024;-77
2023/04/26 04:28:46;;;;;;;12.98;5.82;;;3.30;99.90;;;;;;5076077;28;20020;-77
2023/04/26 04:31:12;;;;;;;7.55;4.97;;;3.30;99.90;;;;;;5076133;28;20024;-77
2023/04/26 04:33:38;;;;;;;10.52;5.28;;;3.40;99.90;;;;;;5075815;28;20053;-77
2023/04/26 04:36:05;;;;;;;11.90;5.00;;;3.40;99.90;;;;;;5075667;28;20039;-77
2023/04/26 04:38:31;;;;;;;12.93;5.68;;;3.40;99.90;;;;;;5067555;28;20040;-78
2023/04/26 04:40:57;;;;;;;13.85;5.53;;;3.40;99.90;;;;;;5053212;28;20033;-77
2023/04/26 04:43:22;;;;;;;13.00;6.90;;;3.50;99.90;;;;;;5057488;28;20774;-77
2023/04/26 04:45:48;;;;;;;22.60;8.25;;;3.50;99.90;;;;;;5073638;28;20020;-78
2023/04/26 04:48:14;;;;;;;24.90;11.57;;;3.60;99.90;;;;;;5072768;28;20359;-78
2023/04/26 04:50:41;;;;;;;34.58;14.40;;;3.70;99.90;;;;;;5074686;28;20021;-77
2023/04/26 04:53:11;;;;;;;27.60;11.57;;;3.70;99.90;;;;;;5075449;28;20029;-78
2023/04/26 04:55:37;;;;;;;21.27;8.50;;;3.70;99.90;;;;;;5074119;28;20017;-77
2023/04/26 04:58:03;;;;;;;13.50;6.35;;;3.80;99.90;;;;;;5075351;28;20039;-77
2023/04/26 05:00:29;;;;;;;7.85;5.70;;;3.80;99.90;;;;;;5073990;28;20389;-77
2023/04/26 05:02:55;;;;;;;10.30;5.78;;;3.80;99.90;;;;;;5075191;28;20424;-77
2023/04/26 05:05:21;;;;;;;22.27;10.98;;;3.80;99.70;;;;;;5073439;28;20016;-77
2023/04/26 05:07:46;;;;;;;83.65;31.45;;;3.90;99.90;;;;;;5075041;28;20103;-78
2023/04/26 05:10:12;;;;;;;62.53;22.50;;;4.00;97.70;;;;;;5075186;28;20029;-77
2023/04/26 05:12:38;;;;;;;174.50;60.67;;;3.90;95.30;;;;;;5073661;28;20385;-77
2023/04/26 05:15:04;;;;;;;96.82;35.00;;;4.00;94.40;;;;;;5073482;28;20032;-78
2023/04/26 05:17:31;;;;;;;156.63;56.78;;;4.10;92.40;;;;;;5073617;28;20477;-77
2023/04/26 05:19:57;;;;;;;71.28;24.92;;;4.10;91.40;;;;;;5074336;28;20517;-76
2023/04/26 05:22:22;;;;;;;55.38;21.15;;;4.10;90.50;;;;;;5075063;28;20052;-76
2023/04/26 05:24:48;;;;;;;174.65;65.28;;;4.20;90.40;;;;;;5073534;28;20048;-77
2023/04/26 05:27:14;;;;;;;39.15;16.00;;;4.30;89.70;;;;;;5074827;28;20094;-77
2023/04/26 05:29:40;;;;;;;110.18;39.47;;;4.30;87.60;;;;;;5074688;28;20056;-76
2023/04/26 05:32:06;;;;;;;117.47;42.50;;;4.40;88.80;;;;;;5074373;28;20078;-77
2023/04/26 05:34:31;;;;;;;63.72;27.60;;;4.50;86.80;;;;;;5065340;28;20053;-77
2023/04/26 05:36:57;;;;;;;49.20;20.73;;;4.60;87.30;;;;;;5074094;28;20024;-77
2023/04/26 05:39:23;;;;;;;123.65;42.75;;;4.60;84.50;;;;;;5074535;28;20596;-77
2023/04/26 05:41:48;;;;;;;83.20;30.38;;;4.60;84.60;;;;;;5073694;28;20024;-76
2023/04/26 05:44:14;;;;;;;103.85;34.75;;;4.70;84.40;;;;;;5073095;28;20029;-76
2023/04/26 05:46:40;;;;;;;76.10;25.70;;;4.70;83.80;;;;;;5072290;28;20401;-77
2023/04/26 05:49:06;;;;;;;20.00;7.28;;;4.70;82.50;;;;;;5073127;28;20035;-77
2023/04/26 05:51:31;;;;;;;46.03;15.75;;;4.80;82.40;;;;;;5072370;28;20024;-78
2023/04/26 05:53:57;;;;;;;45.42;15.93;;;4.90;81.20;;;;;;5073539;28;20028;-78
2023/04/26 05:56:24;;;;;;;42.65;15.73;;;5.00;80.80;;;;;;5073728;28;20021;-78
2023/04/26 05:58:50;;;;;;;26.40;8.70;;;5.10;79.60;;;;;;5070666;28;20016;-77
2023/04/26 06:01:15;;;;;;;32.42;12.02;;;5.30;80.40;;;;;;5068747;28;20040;-77
2023/04/26 06:03:43;;;;;;;99.65;29.30;;;5.40;79.20;;;;;;5072591;28;20435;-77
2023/04/26 06:06:08;;;;;;;5.07;3.47;;;5.50;78.90;;;;;;5071386;28;20021;-76
2023/04/26 06:08:34;;;;;;;18.98;7.70;;;5.50;74.60;;;;;;5072389;28;20522;-77
2023/04/26 06:11:00;;;;;;;15.25;6.70;;;5.60;74.90;;;;;;5068261;28;20500;-76
2023/04/26 06:13:25;;;;;;;16.63;7.43;;;5.60;74.30;;;;;;5070677;28;20025;-77
2023/04/26 06:15:53;;;;;;;42.20;13.15;;;5.70;73.20;;;;;;5053468;28;20079;-77
2023/04/26 06:18:18;;;;;;;32.60;12.50;;;5.80;74.20;;;;;;5070032;28;20009;-77
2023/04/26 06:20:45;;;;;;;38.22;13.52;;;6.00;73.40;;;;;;5072882;28;20032;-77
2023/04/26 06:23:11;;;;;;;19.85;7.72;;;6.00;71.50;;;;;;5072276;28;20020;-77
2023/04/26 06:25:39;;;;;;;25.38;8.13;;;6.10;71.00;;;;;;5071827;28;20028;-77
2023/04/26 06:28:05;;;;;;;12.15;4.18;;;6.40;71.80;;;;;;5073690;28;20028;-78
2023/04/26 06:30:31;;;;;;;45.10;16.35;;;6.20;70.00;;;;;;5063364;28;20017;-78
2023/04/26 06:32:58;;;;;;;53.38;19.38;;;6.20;70.20;;;;;;5058134;28;20375;-78
2023/04/26 06:35:24;;;;;;;40.47;16.17;;;6.30;69.60;;;;;;5069960;28;20047;-78
2023/04/26 06:37:50;;;;;;;38.72;15.73;;;6.40;68.80;;;;;;5069517;28;20664;-78
2023/04/26 06:40:16;;;;;;;22.75;9.15;;;6.50;67.20;;;;;;5069917;28;20035;-78
2023/04/26 06:42:42;;;;;;;8.27;4.53;;;6.50;64.80;;;;;;5069891;28;20051;-78
2023/04/26 06:45:08;;;;;;;11.55;4.80;;;6.60;65.30;;;;;;5072030;28;20409;-79
2023/04/26 06:47:34;;;;;;;18.60;8.80;;;6.40;64.50;;;;;;5072940;28;20034;-79
2023/04/26 06:50:00;;;;;;;6.90;2.20;;;6.70;65.60;;;;;;5073192;28;20385;-79
2023/04/26 06:52:25;;;;;;;16.08;8.05;;;6.60;63.30;;;;;;5073099;28;20075;-79
2023/04/26 06:54:51;;;;;;;10.95;4.22;;;6.60;62.40;;;;;;5072958;28;20108;-78
2023/04/26 06:57:16;;;;;;;6.68;4.13;;;6.70;63.50;;;;;;5071666;28;20023;-79
2023/04/26 06:59:42;;;;;;;11.35;5.47;;;6.60;61.70;;;;;;5084228;28;20052;-79
2023/04/26 07:02:08;;;;;;;11.95;5.38;;;6.50;61.80;;;;;;5088303;28;20040;-79
2023/04/26 07:04:33;;;;;;;8.18;4.05;;;6.80;62.60;;;;;;5070979;28;20028;-79
2023/04/26 07:06:59;;;;;;;7.72;4.50;;;6.90;61.60;;;;;;5072374;28;20055;-79
2023/04/26 07:09:24;;;;;;;8.75;3.88;;;6.90;61.60;;;;;;5072527;28;20065;-79
2023/04/26 07:11:50;;;;;;;8.65;3.40;;;6.80;61.00;;;;;;5072781;28;20035;-78
2023/04/26 07:14:16;;;;;;;11.65;5.47;;;6.70;60.90;;;;;;5071817;28;20063;-78
2023/04/26 07:16:41;;;;;;;7.05;3.20;;;6.90;61.60;;;;;;5051421;28;20036;-78
2023/04/26 07:19:08;;;;;;;8.65;3.00;;;7.10;61.50;;;;;;5052741;28;20044;-79
2023/04/26 07:21:34;;;;;;;8.10;2.83;;;6.60;60.50;;;;;;5051589;28;20124;-78
2023/04/26 07:24:00;;;;;;;5.45;2.20;;;6.80;60.80;;;;;;5057787;28;20083;-79
2023/04/26 07:26:26;;;;;;;10.13;3.35;;;6.90;61.70;;;;;;5074718;28;20550;-79
2023/04/26 07:28:52;;;;;;;21.55;9.65;;;6.90;62.50;;;;;;5074254;28;20729;-79
2023/04/26 07:31:18;;;;;;;17.20;5.22;;;6.80;61.80;;;;;;5071886;28;20030;-79
2023/04/26 07:33:44;;;;;;;10.38;3.03;;;6.80;61.40;;;;;;5074052;28;20056;-78
2023/04/26 07:36:10;;;;;;;7.65;2.10;;;6.80;61.40;;;;;;5074323;28;20027;-79
2023/04/26 07:38:36;;;;;;;6.20;3.45;;;6.90;61.00;;;;;;5073396;28;20092;-78
2023/04/26 07:41:01;;;;;;;9.18;3.70;;;7.10;62.40;;;;;;5073941;28;20024;-78
2023/04/26 07:43:28;;;;;;;4.15;2.33;;;7.20;61.50;;;;;;5073874;28;20039;-78
2023/04/26 07:45:54;;;;;;;6.78;4.00;;;7.20;61.00;;;;;;5075246;28;20052;-76
2023/04/26 07:48:19;;;;;;;3.40;2.08;;;7.10;59.20;;;;;;5073076;28;20048;-76
2023/04/26 07:50:45;;;;;;;4.22;2.72;;;7.10;60.00;;;;;;5073351;28;20033;-79
2023/04/26 07:53:11;;;;;;;4.65;2.03;;;7.00;59.30;;;;;;5074690;28;20455;-79
2023/04/26 07:55:36;;;;;;;7.78;3.90;;;7.10;58.90;;;;;;5071034;28;20504;-76
2023/04/26 07:58:03;;;;;;;5.78;1.80;;;7.00;59.10;;;;;;5072237;28;20048;-78
2023/04/26 08:00:28;;;;;;;6.50;2.55;;;7.10;60.20;;;;;;5076271;28;20012;-76
2023/04/26 08:02:54;;;;;;;3.38;2.20;;;7.50;60.70;;;;;;5075005;28;20048;-77
2023/04/26 08:05:20;;;;;;;4.00;2.15;;;7.90;59.30;;;;;;5076192;28;20067;-79
2023/04/26 08:07:46;;;;;;;12.48;3.78;;;7.80;57.60;;;;;;5074781;28;20399;-78
2023/04/26 08:10:11;;;;;;;9.07;3.72;;;7.70;57.60;;;;;;5076027;28;20081;-76
2023/04/26 08:12:37;;;;;;;10.23;2.70;;;7.50;57.60;;;;;;5074666;28;20035;-77
2023/04/26 08:15:04;;;;;;;4.75;2.55;;;7.70;57.90;;;;;;5074647;28;20071;-77
2023/04/26 08:17:31;;;;;;;5.20;2.55;;;7.60;57.50;;;;;;5075957;28;20408;-77
2023/04/26 08:19:57;;;;;;;3.97;2.60;;;7.70;57.80;;;;;;5074677;28;20020;-77
2023/04/26 08:22:23;;;;;;;3.58;2.33;;;7.90;58.20;;;;;;5075879;28;20059;-77
2023/04/26 08:24:50;;;;;;;7.20;3.90;;;8.20;56.50;;;;;;5074555;28;20024;-77
2023/04/26 08:27:16;;;;;;;6.10;2.60;;;8.60;58.70;;;;;;5075739;28;20059;-78
2023/04/26 08:29:42;;;;;;;5.25;2.80;;;8.80;56.10;;;;;;5088796;28;20116;-77
2023/04/26 08:32:08;;;;;;;5.10;2.53;;;8.50;55.40;;;;;;5096204;28;20473;-77
2023/04/26 08:34:33;;;;;;;4.80;1.95;;;8.10;55.70;;;;;;5094417;28;20492;-77
2023/04/26 08:36:59;;;;;;;4.40;2.20;;;7.70;55.60;;;;;;5096098;28;20020;-77
2023/04/26 08:39:25;;;;;;;4.88;1.98;;;7.40;55.60;;;;;;5096125;28;20028;-77
2023/04/26 08:41:56;;;;;;;2.05;1.80;;;7.70;56.40;;;;;;5094654;28;20032;-78
2023/04/26 08:44:23;;;;;;;3.85;2.20;;;7.50;56.80;;;;;;5055672;28;20028;-77
2023/04/26 08:47:30;;;;;;;3.83;2.17;;;7.40;56.40;;;;;;5070469;28;20398;-77
2023/04/26 08:50:02;;;;;;;4.10;2.17;;;7.60;57.10;;;;;;5070905;28;20053;-77
2023/04/26 08:52:30;;;;;;;4.85;1.90;;;8.20;58.70;;;;;;5055381;28;20021;-77
2023/04/26 08:54:57;;;;;;;3.75;2.20;;;8.70;57.80;;;;;;5055546;28;20057;-76
2023/04/26 08:57:23;;;;;;;6.07;2.65;;;8.80;55.80;;;;;;5073159;28;20013;-77
2023/04/26 08:59:52;;;;;;;6.35;2.22;;;8.20;54.10;;;;;;5073927;28;20026;-77
2023/04/26 09:02:20;;;;;;;7.00;2.75;;;8.10;53.70;;;;;;5073897;28;20032;-77
2023/04/26 09:04:47;;;;;;;4.30;1.77;;;7.90;52.60;;;;;;5075289;28;20017;-77
2023/04/26 09:07:25;;;;;;;4.97;2.45;;;7.70;52.50;;;;;;5075153;28;20028;-77
2023/04/26 09:09:53;;;;;;;5.18;2.33;;;7.40;53.10;;;;;;5073939;28;20024;-78
2023/04/26 09:12:20;;;;;;;5.78;1.98;;;7.30;53.80;;;;;;5074460;28;20059;-78
2023/04/26 09:14:46;;;;;;;2.42;2.10;;;7.30;54.00;;;;;;5075023;28;20512;-77
2023/04/26 09:17:36;;;;;;;7.35;2.30;;;7.60;54.90;;;;;;5074950;28;20020;-77
2023/04/26 09:20:20;;;;;;;4.88;2.17;;;8.20;55.40;;;;;;5073801;28;20031;-76
2023/04/26 09:22:46;;;;;;;3.38;1.75;;;8.00;55.20;;;;;;5074746;28;20043;-77
2023/04/26 09:25:12;;;;;;;5.70;1.80;;;7.30;55.40;;;;;;5074881;28;20099;-77
2023/04/26 09:27:40;;;;;;;6.00;2.88;;;7.20;57.60;;;;;;5072905;28;20124;-77
2023/04/26 09:30:09;;;;;;;4.72;2.20;;;7.20;58.70;;;;;;5074815;28;20024;-77
2023/04/26 09:33:05;;;;;;;10.05;2.50;;;7.30;58.60;;;;;;5074535;28;20028;-77
2023/04/26 09:35:39;;;;;;;3.15;1.80;;;7.50;58.20;;;;;;5070609;28;20021;-77
2023/04/26 09:38:05;;;;;;;5.60;1.58;;;7.60;57.80;;;;;;5050470;28;20479;-78
2023/04/26 09:40:42;;;;;;;6.65;1.95;;;7.90;56.10;;;;;;5052255;28;20033;-77
2023/04/26 09:43:11;;;;;;;2.40;1.63;;;8.00;55.80;;;;;;5053637;28;20048;-77
2023/04/26 09:45:57;;;;;;;2.35;1.58;;;8.10;57.20;;;;;;5052022;28;20185;-77
2023/04/26 09:48:29;;;;;;;2.88;1.58;;;7.90;55.70;;;;;;5053269;28;20024;-77
2023/04/26 09:50:59;;;;;;;3.35;1.38;;;7.60;55.70;;;;;;5053589;28;20064;-77
2023/04/26 09:53:39;;;;;;;6.03;3.38;;;7.20;54.90;;;;;;5052083;28;20024;-77
2023/04/26 09:56:17;;;;;;;7.95;3.45;;;6.90;54.90;;;;;;5052023;28;20033;-78
2023/04/26 09:58:43;;;;;;;8.55;3.90;;;6.70;56.80;;;;;;5053460;28;20025;-77
2023/04/26 10:01:10;;;;;;;4.88;2.80;;;6.70;57.60;;;;;;5060275;28;20123;-77
2023/04/26 10:03:37;;;;;;;4.72;2.33;;;6.60;57.60;;;;;;5086930;28;20021;-77
2023/04/26 10:06:05;;;;;;;3.50;2.80;;;6.70;57.80;;;;;;5073244;28;20379;-77
2023/04/26 10:08:31;;;;;;;3.97;2.22;;;7.00;58.30;;;;;;5073093;28;20069;-77
2023/04/26 10:10:58;;;;;;;5.32;1.70;;;7.50;59.20;;;;;;5073097;28;20043;-77
2023/04/26 10:13:24;;;;;;;2.33;1.70;;;8.10;58.10;;;;;;5072896;28;20025;-77
2023/04/26 10:15:52;;;;;;;2.40;1.83;;;8.40;56.70;;;;;;5071149;28;20028;-78
2023/04/26 10:18:18;;;;;;;1.00;1.00;;;8.80;57.10;;;;;;5072920;28;20031;-77
2023/04/26 10:20:50;;;;;;;2.00;1.20;;;8.60;53.30;;;;;;5071333;28;20119;-77
2023/04/26 10:23:26;;;;;;;3.63;1.48;;;8.60;52.20;;;;;;5072995;28;20021;-77
2023/04/26 10:25:52;;;;;;;2.28;1.10;;;8.60;52.90;;;;;;5072834;28;20032;-78
2023/04/26 10:28:44;;;;;;;1.40;1.30;;;8.60;52.90;;;;;;5070967;28;20115;-77
2023/04/26 10:31:10;;;;;;;4.00;1.42;;;8.30;52.00;;;;;;5071952;28;20025;-78
2023/04/26 10:33:36;;;;;;;2.13;1.33;;;8.20;52.10;;;;;;5065730;28;20070;-77
2023/04/26 10:36:12;;;;;;;2.53;1.20;;;8.40;53.20;;;;;;5070208;28;20040;-77
2023/04/26 10:39:17;;;;;;;4.10;1.50;;;8.60;54.90;;;;;;5068943;28;20385;-77
2023/04/26 10:41:42;;;;;;;6.60;2.80;;;8.70;54.10;;;;;;5052418;28;20095;-77
2023/04/26 10:44:36;;;;;;;4.80;1.85;;;9.20;53.80;;;;;;5068124;28;20424;-77
2023/04/26 10:47:05;;;;;;;2.40;1.33;;;9.20;50.50;;;;;;5070653;28;20079;-77
2023/04/26 10:49:44;;;;;;;3.55;1.60;;;8.70;48.30;;;;;;5072290;28;20097;-77
2023/04/26 10:52:11;;;;;;;17.15;6.10;;;8.40;49.60;;;;;;5072245;28;20166;-77
2023/04/26 10:54:48;;;;;;;3.53;1.83;;;8.30;52.00;;;;;;5071046;28;20094;-77
2023/04/26 10:57:14;;;;;;;6.70;2.45;;;8.10;51.80;;;;;;5070848;28;20024;-77
2023/04/26 11:00:09;;;;;;;4.05;1.25;;;8.00;51.70;;;;;;5071049;28;20056;-77
2023/04/26 11:03:10;;;;;;;2.45;1.58;;;7.80;51.80;;;;;;5072278;28;20040;-77
2023/04/26 11:05:37;;;;;;;4.78;1.90;;;7.80;53.50;;;;;;5050357;28;20037;-77
2023/04/26 11:08:28;;;;;;;5.65;1.38;;;7.90;52.20;;;;;;5052319;28;20032;-77
2023/04/26 11:11:03;;;;;;;4.32;1.60;;;8.30;54.50;;;;;;5052133;28;20056;-78
2023/04/26 11:13:30;;;;;;;4.57;1.63;;;8.80;54.60;;;;;;5050627;28;20475;-77
2023/04/26 11:16:04;;;;;;;7.47;2.80;;;8.80;52.90;;;;;;5051537;28;20052;-77
2023/04/26 11:18:31;;;;;;;7.05;3.15;;;8.20;50.60;;;;;;5053623;28;20032;-78
2023/04/26 11:21:00;;;;;;;5.03;2.90;;;8.00;51.50;;;;;;5089076;28;20048;-77
2023/04/26 11:23:28;;;;;;;6.00;2.90;;;7.90;51.00;;;;;;5068526;28;20099;-77
2023/04/26 11:26:07;;;;;;;8.07;4.07;;;8.00;50.90;;;;;;5071541;28;20043;-77
2023/04/26 11:28:35;;;;;;;1.77;1.50;;;8.40;51.10;;;;;;5069895;28;20451;-77
2023/04/26 11:31:06;;;;;;;5.95;3.25;;;8.80;51.10;;;;;;5068085;28;20024;-77
2023/04/26 11:33:34;;;;;;;4.50;2.75;;;9.10;50.60;;;;;;5068629;28;20609;-77
2023/04/26 11:36:00;;;;;;;3.95;1.10;;;9.40;49.50;;;;;;5067027;28;20020;-78
2023/04/26 11:38:27;;;;;;;3.65;1.63;;;9.50;47.00;;;;;;5070151;28;20482;-77
2023/04/26 11:41:03;;;;;;;5.50;1.58;;;9.80;46.20;;;;;;5067327;28;20131;-77
2023/04/26 11:43:35;;;;;;;2.05;1.30;;;9.70;44.70;;;;;;5070724;28;20021;-77
2023/04/26 11:46:01;;;;;;;6.55;2.80;;;10.00;45.80;;;;;;5069487;28;20036;-77
2023/04/26 11:48:29;;;;;;;7.35;4.13;;;10.10;46.40;;;;;;5071284;28;20021;-76
2023/04/26 11:50:57;;;;;;;3.50;1.88;;;9.90;46.00;;;;;;5070510;28;20032;-77
2023/04/26 11:53:24;;;;;;;3.67;1.52;;;9.80;47.70;;;;;;5071433;28;20086;-77
2023/04/26 11:55:50;;;;;;;1.80;1.20;;;9.50;47.30;;;;;;5071124;28;20048;-77
2023/04/26 11:58:16;;;;;;;2.30;1.48;;;9.00;46.90;;;;;;5069721;28;20040;-77
2023/04/26 12:00:58;;;;;;;3.75;1.40;;;8.50;46.90;;;;;;5069444;28;20412;-77
2023/04/26 12:03:29;;;;;;;3.10;1.35;;;8.10;47.30;;;;;;5071459;28;20378;-77
2023/04/26 12:05:55;;;;;;;3.33;1.30;;;8.10;47.10;;;;;;5071679;28;20474;-78
2023/04/26 12:08:25;;;;;;;4.13;1.70;;;8.00;45.90;;;;;;5071843;28;20023;-78
2023/04/26 12:10:51;;;;;;;2.35;1.40;;;8.00;45.30;;;;;;5074577;28;20052;-78
2023/04/26 12:13:18;;;;;;;2.50;1.17;;;8.00;44.90;;;;;;5073891;28;20052;-78
2023/04/26 12:15:46;;;;;;;5.47;1.65;;;8.10;44.70;;;;;;5074900;28;20082;-78
2023/04/26 12:18:11;;;;;;;2.28;1.67;;;8.20;46.50;;;;;;5072495;28;20378;-78
2023/04/26 12:20:39;;;;;;;3.65;1.67;;;8.60;46.50;;;;;;5074145;28;20020;-77
2023/04/26 12:23:10;;;;;;;3.63;1.60;;;9.00;47.40;;;;;;5073034;28;20028;-77
2023/04/26 12:25:38;;;;;;;3.13;1.27;;;9.00;46.20;;;;;;5075468;28;20024;-77
2023/04/26 12:28:11;;;;;;;4.32;1.50;;;9.30;45.30;;;;;;5073664;28;20164;-77
2023/04/26 12:30:38;;;;;;;3.58;1.60;;;9.40;43.80;;;;;;5073220;28;20024;-78
2023/04/26 12:33:05;;;;;;;3.28;1.25;;;9.20;44.20;;;;;;5071208;28;20060;-78
2023/04/26 12:35:31;;;;;;;4.85;2.17;;;8.50;44.70;;;;;;5051745;28;20462;-77
2023/04/26 12:37:59;;;;;;;2.63;1.40;;;8.50;45.70;;;;;;5053238;28;20108;-77
2023/04/26 12:40:26;;;;;;;2.15;1.25;;;8.30;46.00;;;;;;5051371;28;20029;-78
2023/04/26 12:42:54;;;;;;;6.38;1.80;;;8.20;46.40;;;;;;5053897;28;20091;-78
2023/04/26 12:45:21;;;;;;;2.47;1.40;;;8.20;48.10;;;;;;5053144;28;20024;-78
2023/04/26 12:47:47;;;;;;;7.30;2.15;;;8.20;47.00;;;;;;5053325;28;20029;-77
2023/04/26 12:50:14;;;;;;;4.60;1.45;;;8.20;45.70;;;;;;5054557;28;20501;-78
2023/04/26 12:52:42;;;;;;;2.28;1.52;;;8.40;44.90;;;;;;5052971;28;20108;-78